Airfield :
LOGIN :

Register | Disclaimer

   EN    FR    IT 

 










Legend :    VFR   Marginal VFR   IFR   Intensive IFR   Very Intensive IFR
Visi :
Ceiling :
>= 8 km
>= 3000ft
5 to 8 km
1000 to 3000 ft
1500m to 5 km
500 to 1000 ft
800 to 1500m
200 to 500 ft
< 800m
< 200 ft
Symbols :   Thunderstorms  Fog  Heavy snow  Heavy precipitations  Wind > 20 kt
SIGMETs :     Misc.  Thunderstorms  Icing  Turbulence  Mountain Waves  Volcanic Ashes






- Airport Elevation : 788 ft
- IATA code : DCM


LFCK - Castres-Mazamet

CURRENT METAR :
  • 150730Z AUTO 15005KT 110V170 9999 BKN040 04/03 Q1001 NOSIG

EXPIRED METARs :
  • 150700Z AUTO 13007KT 9999 R14/1100U FEW027 OVC037 04/03 Q1000 NOSIG
  • 150630Z AUTO 16005KT 9999 BKN030 OVC036 04/03 Q1000 NOSIG
  • 150600Z AUTO VRB03KT 9999 FEW029 BKN037 BKN200 03/02 Q1000 NOSIG
  • 150530Z AUTO 13004KT 9999 OVC038 03/03 Q1000
  • 150500Z AUTO 11004KT 9999 SCT031 BKN038 BKN044 03/03 Q1000

TAF TAF LFCK
Valid from the 15 at 06:00 until the 15 at 15:00 UTC


150500Z 1506/1515 12005KT 9999 BKN035
BECMG 1506/1508 CAVOK



MET'MAP, your aeronautical weather chart ! - Copyright ORBIFLY December 2007 - Disclaimer

ORBIFLY MET'MAP TEAM :

Programming & Development : Alexandra Zaïnal
Concept & Development : Baudouin d'Aumeries
Co-Development & Prog : Marc-Olivier Méhu
Technical & hardware support : Manuel Goepfert

Contact : metmap@orbifly.com




SOURCES & CREDITS :

   NOAA